Time;durP1;ratioP1;P1;durP2;ratioP2;P2;SDS_P1;SDS_P2;PMS_P1;PMS_P2;Temp;Humidity;BMP_temperature;BMP_pressure;BME280_temperature;BME280_humidity;BME280_pressure;Samples;Min_cycle;Max_cycle;Signal;HPM_P1;HPM_P2
2022/05/16 00:02:13;;;;;;;0.50;0.40;;;16.20;99.90;;;;;;5078063;28;20469;-80
2022/05/16 00:04:40;;;;;;;0.50;0.40;;;16.20;99.90;;;;;;5078320;28;20445;-80
2022/05/16 00:07:07;;;;;;;0.50;0.40;;;16.10;99.90;;;;;;5078136;28;20440;-81
2022/05/16 00:09:34;;;;;;;0.50;0.30;;;16.00;99.90;;;;;;5077106;28;20489;-80
2022/05/16 00:12:04;;;;;;;0.50;0.40;;;15.90;99.90;;;;;;5077250;28;20463;-81
2022/05/16 00:14:30;;;;;;;0.50;0.40;;;15.90;99.90;;;;;;5077561;28;20443;-81
2022/05/16 00:16:57;;;;;;;0.50;0.40;;;15.90;99.90;;;;;;5077883;28;20507;-79
2022/05/16 00:19:24;;;;;;;0.50;0.40;;;15.80;99.90;;;;;;5077881;28;20433;-80
2022/05/16 00:21:51;;;;;;;0.50;0.40;;;15.80;99.90;;;;;;5076767;28;20466;-79
2022/05/16 00:24:18;;;;;;;0.83;0.83;;;15.80;99.90;;;;;;5077325;28;20822;-81
2022/05/16 00:26:45;;;;;;;0.50;0.40;;;15.70;99.90;;;;;;5077543;28;20464;-78
2022/05/16 00:29:13;;;;;;;0.50;0.40;;;15.70;99.90;;;;;;5078089;28;20473;-80
2022/05/16 00:31:40;;;;;;;0.50;0.40;;;15.70;99.90;;;;;;5079133;28;20465;-81
2022/05/16 00:34:07;;;;;;;0.50;0.40;;;15.80;99.90;;;;;;5080060;28;20444;-81
2022/05/16 00:36:33;;;;;;;0.50;0.40;;;15.80;99.90;;;;;;5079706;28;20441;-81
2022/05/16 00:39:00;;;;;;;0.50;0.37;;;15.80;99.90;;;;;;5078775;28;20435;-81
2022/05/16 00:41:27;;;;;;;0.50;0.40;;;15.80;99.90;;;;;;5078381;28;20468;-80
2022/05/16 00:43:57;;;;;;;0.50;0.40;;;15.80;99.90;;;;;;5078545;28;20440;-81
2022/05/16 00:46:27;;;;;;;0.50;0.30;;;15.80;99.90;;;;;;5077878;28;20448;-81
2022/05/16 00:48:54;;;;;;;0.50;0.40;;;15.80;99.90;;;;;;5076989;28;20455;-81
2022/05/16 00:51:23;;;;;;;0.50;0.40;;;15.80;99.90;;;;;;5077897;28;20461;-80
2022/05/16 00:53:54;;;;;;;0.50;0.40;;;15.80;99.90;;;;;;5077383;28;20446;-81
2022/05/16 00:56:22;;;;;;;0.50;0.40;;;15.80;99.90;;;;;;5077323;28;20440;-81
2022/05/16 00:58:49;;;;;;;0.50;0.40;;;15.80;99.90;;;;;;5077072;28;20957;-81
2022/05/16 01:07:07;;;;;;;0.50;0.40;;;15.80;99.90;;;;;;5049036;28;20475;-81
2022/05/16 01:09:34;;;;;;;0.50;0.40;;;15.80;99.90;;;;;;5078897;28;20471;-81
2022/05/16 01:12:02;;;;;;;0.50;0.40;;;15.80;99.90;;;;;;5079064;28;20977;-81
2022/05/16 01:14:44;;;;;;;0.50;0.40;;;15.80;99.90;;;;;;5078859;28;20439;-81
2022/05/16 01:17:12;;;;;;;0.50;0.33;;;15.70;99.90;;;;;;5078123;28;20444;-81
2022/05/16 01:19:40;;;;;;;0.50;0.40;;;15.70;99.90;;;;;;5078312;28;20443;-81
2022/05/16 01:22:15;;;;;;;0.50;0.40;;;15.70;99.90;;;;;;5077602;28;20456;-81
2022/05/16 01:24:43;;;;;;;0.50;0.30;;;15.70;99.90;;;;;;5078530;28;20445;-82
2022/05/16 01:27:10;;;;;;;2.00;1.90;;;15.70;99.90;;;;;;5077820;28;20630;-81
2022/05/16 01:29:37;;;;;;;0.50;0.40;;;15.60;99.90;;;;;;5077360;28;20467;-81
2022/05/16 01:32:04;;;;;;;0.50;0.30;;;15.60;99.90;;;;;;5082886;28;20460;-80
2022/05/16 01:34:31;;;;;;;0.50;0.40;;;15.60;99.90;;;;;;5083203;28;20440;-80
2022/05/16 01:36:58;;;;;;;0.50;0.40;;;15.50;99.90;;;;;;5082400;28;20436;-81
2022/05/16 01:39:26;;;;;;;0.50;0.30;;;15.40;99.90;;;;;;5077031;28;20432;-81
2022/05/16 01:41:53;;;;;;;0.50;0.40;;;15.40;99.90;;;;;;5079833;28;20466;-81
2022/05/16 01:44:20;;;;;;;0.50;0.40;;;15.40;99.90;;;;;;5083879;28;20493;-80
2022/05/16 01:46:47;;;;;;;0.50;0.40;;;15.40;99.90;;;;;;5077606;28;20443;-81
2022/05/16 01:49:14;;;;;;;0.50;0.40;;;15.40;99.90;;;;;;5077184;28;20951;-81
2022/05/16 01:51:41;;;;;;;0.50;0.40;;;15.40;99.90;;;;;;5077348;28;20468;-81
2022/05/16 01:54:08;;;;;;;0.50;0.40;;;15.40;99.90;;;;;;5077324;28;20515;-81
2022/05/16 01:56:37;;;;;;;0.50;0.40;;;15.40;99.90;;;;;;5076458;28;20451;-80
2022/05/16 01:59:05;;;;;;;0.50;0.40;;;15.40;99.90;;;;;;5076181;28;20779;-81
2022/05/16 02:01:33;;;;;;;0.50;0.40;;;15.40;99.90;;;;;;5076326;28;20486;-80
2022/05/16 02:03:59;;;;;;;0.50;0.40;;;15.40;99.90;;;;;;5077424;28;20443;-81
2022/05/16 02:06:26;;;;;;;0.50;0.40;;;15.40;99.90;;;;;;5077372;28;20432;-81
2022/05/16 02:08:54;;;;;;;0.50;0.40;;;15.40;99.90;;;;;;5077593;28;20470;-81
2022/05/16 02:11:21;;;;;;;0.60;0.60;;;15.30;99.90;;;;;;5077127;28;20472;-81
2022/05/16 02:13:49;;;;;;;0.50;0.40;;;15.30;99.90;;;;;;5077619;28;20471;-81
2022/05/16 02:16:16;;;;;;;0.50;0.40;;;15.30;99.90;;;;;;5077248;28;20440;-80
2022/05/16 02:18:43;;;;;;;0.50;0.40;;;15.30;99.90;;;;;;5076877;28;20432;-81
2022/05/16 02:26:38;;;;;;;0.50;0.40;;;15.20;99.90;;;;;;5076284;28;20428;-81
2022/05/16 02:29:07;;;;;;;0.50;0.40;;;15.20;99.90;;;;;;5076383;28;20737;-81
2022/05/16 02:31:34;;;;;;;0.60;0.60;;;15.10;99.90;;;;;;5076558;28;20484;-80
2022/05/16 02:34:00;;;;;;;0.50;0.40;;;15.20;99.90;;;;;;5068701;28;20479;-82
2022/05/16 02:36:27;;;;;;;0.50;0.40;;;15.20;99.90;;;;;;5060981;28;20440;-81
2022/05/16 02:38:54;;;;;;;0.50;0.40;;;15.10;99.90;;;;;;5056555;28;20425;-81
2022/05/16 02:41:23;;;;;;;0.50;0.40;;;15.10;99.90;;;;;;5056894;28;20470;-80
2022/05/16 02:43:50;;;;;;;0.50;0.40;;;15.10;99.90;;;;;;5056679;28;20501;-81
2022/05/16 02:46:18;;;;;;;0.50;0.40;;;15.10;99.90;;;;;;5059243;28;20441;-80
2022/05/16 02:48:45;;;;;;;0.50;0.40;;;15.10;99.90;;;;;;5060640;28;20444;-80
2022/05/16 02:51:12;;;;;;;0.50;0.40;;;15.10;99.90;;;;;;5059673;28;20483;-81
2022/05/16 02:53:38;;;;;;;0.50;0.40;;;15.10;99.90;;;;;;5058854;28;20440;-80
2022/05/16 02:56:06;;;;;;;0.50;0.40;;;15.10;99.90;;;;;;5062360;28;20771;-81
2022/05/16 02:58:32;;;;;;;0.50;0.40;;;15.10;99.90;;;;;;5063539;28;20432;-80
2022/05/16 03:00:59;;;;;;;0.50;0.40;;;15.10;99.90;;;;;;5063612;28;20479;-81
2022/05/16 03:03:27;;;;;;;0.50;0.40;;;15.10;99.90;;;;;;5060253;28;20436;-81
2022/05/16 03:05:54;;;;;;;0.50;0.40;;;15.00;99.90;;;;;;5060999;28;20526;-81
2022/05/16 03:08:21;;;;;;;0.50;0.40;;;15.00;99.90;;;;;;5060002;28;20425;-81
2022/05/16 03:10:48;;;;;;;0.50;0.40;;;14.90;99.90;;;;;;5059731;28;20473;-81
2022/05/16 03:13:15;;;;;;;0.50;0.40;;;14.90;99.90;;;;;;5060362;28;20440;-81
2022/05/16 03:15:41;;;;;;;0.50;0.40;;;14.90;99.90;;;;;;5060090;28;20444;-81
2022/05/16 03:18:08;;;;;;;0.50;0.40;;;14.90;99.90;;;;;;5059550;28;20433;-80
2022/05/16 03:20:37;;;;;;;0.60;0.50;;;14.80;99.90;;;;;;5059780;28;20436;-81
2022/05/16 03:23:03;;;;;;;0.50;0.40;;;14.80;99.90;;;;;;5059797;28;20459;-80
2022/05/16 03:25:30;;;;;;;0.50;0.40;;;14.80;99.90;;;;;;5059260;28;20433;-80
2022/05/16 03:27:57;;;;;;;0.50;0.40;;;14.80;99.90;;;;;;5059530;28;20587;-81
2022/05/16 03:30:24;;;;;;;0.50;0.40;;;14.70;99.90;;;;;;5063619;28;20464;-80
2022/05/16 03:32:50;;;;;;;0.50;0.40;;;14.70;99.90;;;;;;5066739;28;20884;-80
2022/05/16 03:35:18;;;;;;;0.50;0.40;;;14.60;99.90;;;;;;5067203;28;20535;-79
2022/05/16 03:37:46;;;;;;;0.50;0.40;;;14.60;99.90;;;;;;5063002;28;20444;-80
2022/05/16 03:42:58;;;;;;;0.50;0.40;;;14.50;99.90;;;;;;5063929;28;20483;-80
2022/05/16 03:45:25;;;;;;;0.50;0.40;;;14.50;99.90;;;;;;5071792;28;20436;-80
2022/05/16 03:47:52;;;;;;;0.50;0.40;;;14.50;99.90;;;;;;5072023;28;20429;-80
2022/05/16 03:50:19;;;;;;;0.50;0.40;;;14.40;99.90;;;;;;5070505;28;20815;-80
2022/05/16 03:52:47;;;;;;;0.50;0.40;;;14.40;99.90;;;;;;5071528;28;20449;-80
2022/05/16 03:55:16;;;;;;;0.50;0.40;;;14.40;99.90;;;;;;5069834;28;20449;-81
2022/05/16 03:57:43;;;;;;;0.50;0.40;;;14.30;99.90;;;;;;5072080;28;20437;-79
2022/05/16 04:00:14;;;;;;;0.50;0.40;;;14.30;99.90;;;;;;5067126;28;20430;-79
2022/05/16 04:02:42;;;;;;;1.33;1.23;;;14.30;99.90;;;;;;5065501;28;20994;-82
2022/05/16 04:05:10;;;;;;;0.50;0.40;;;14.40;99.90;;;;;;5059986;28;20429;-81
2022/05/16 04:07:37;;;;;;;0.50;0.40;;;14.40;99.90;;;;;;5056934;28;20634;-80
2022/05/16 04:10:06;;;;;;;0.50;0.40;;;14.40;99.90;;;;;;5059286;28;20472;-82
2022/05/16 04:12:33;;;;;;;0.50;0.40;;;14.30;99.90;;;;;;5059328;28;20472;-81
2022/05/16 04:15:00;;;;;;;0.50;0.40;;;14.30;99.90;;;;;;5058442;28;20536;-81
2022/05/16 04:17:27;;;;;;;0.50;0.40;;;14.30;99.90;;;;;;5058153;28;20440;-81
2022/05/16 04:19:54;;;;;;;0.50;0.40;;;14.30;99.90;;;;;;5058069;28;20452;-80
2022/05/16 04:22:21;;;;;;;0.50;0.40;;;14.30;99.90;;;;;;5058165;28;20460;-81
2022/05/16 04:24:48;;;;;;;0.50;0.40;;;14.30;99.90;;;;;;5057561;28;20527;-81
2022/05/16 04:27:16;;;;;;;0.50;0.40;;;14.30;99.90;;;;;;5057808;28;20445;-81
2022/05/16 04:29:43;;;;;;;0.50;0.40;;;14.40;99.90;;;;;;5057673;28;20433;-82
2022/05/16 04:32:10;;;;;;;0.50;0.40;;;14.40;99.90;;;;;;5058431;28;20473;-82
2022/05/16 04:34:36;;;;;;;0.50;0.40;;;14.40;99.90;;;;;;5058284;28;20448;-82
2022/05/16 04:37:03;;;;;;;0.50;0.40;;;14.40;99.90;;;;;;5057837;28;20436;-83
2022/05/16 04:39:30;;;;;;;0.50;0.40;;;14.40;99.90;;;;;;5057433;28;20459;-83
2022/05/16 04:44:42;;;;;;;0.50;0.37;;;14.50;99.90;;;;;;5056931;28;20452;-83
2022/05/16 04:47:10;;;;;;;0.50;0.40;;;14.60;99.90;;;;;;5058093;28;20429;-82
2022/05/16 04:49:37;;;;;;;0.50;0.40;;;14.70;99.90;;;;;;5057720;28;20437;-82
2022/05/16 04:52:04;;;;;;;0.50;0.40;;;14.70;99.90;;;;;;5058474;28;20473;-82
2022/05/16 04:54:31;;;;;;;0.50;0.40;;;14.80;99.90;;;;;;5057697;28;20429;-82
2022/05/16 04:56:58;;;;;;;0.50;0.40;;;14.80;99.90;;;;;;5058146;28;20437;-82
2022/05/16 04:59:25;;;;;;;0.60;0.60;;;14.90;99.90;;;;;;5057704;28;20437;-83
2022/05/16 05:01:53;;;;;;;0.50;0.30;;;15.00;99.90;;;;;;5058130;28;20462;-83
2022/05/16 05:04:20;;;;;;;0.50;0.40;;;15.00;99.90;;;;;;5057530;28;20441;-82
2022/05/16 05:06:47;;;;;;;0.50;0.40;;;15.20;99.90;;;;;;5057306;28;20544;-83
2022/05/16 05:09:14;;;;;;;0.50;0.40;;;15.20;99.90;;;;;;5056751;28;20433;-83
2022/05/16 05:14:34;;;;;;;0.50;0.40;;;15.50;99.90;;;;;;5057657;28;20428;-83
2022/05/16 05:17:03;;;;;;;0.50;0.30;;;15.60;99.90;;;;;;5057002;28;20432;-82
2022/05/16 05:19:30;;;;;;;0.50;0.40;;;15.80;99.90;;;;;;5056115;28;20433;-83
2022/05/16 05:21:57;;;;;;;0.50;0.40;;;15.90;99.90;;;;;;5056973;28;20446;-83
2022/05/16 05:24:23;;;;;;;0.50;0.33;;;16.10;99.90;;;;;;5057179;28;20438;-83
2022/05/16 05:26:50;;;;;;;0.50;0.30;;;16.30;99.90;;;;;;5056694;28;20429;-83
2022/05/16 05:29:18;;;;;;;0.50;0.40;;;16.50;99.90;;;;;;5057024;28;20434;-83
2022/05/16 05:31:46;;;;;;;0.50;0.30;;;16.80;99.90;;;;;;5056879;28;20481;-83
2022/05/16 05:34:14;;;;;;;0.50;0.40;;;17.00;99.90;;;;;;5058050;28;20433;-83
2022/05/16 05:36:42;;;;;;;0.50;0.30;;;17.30;99.90;;;;;;5057276;28;20971;-83
2022/05/16 05:39:09;;;;;;;0.50;0.40;;;17.60;99.90;;;;;;5057344;28;20429;-82
2022/05/16 05:41:36;;;;;;;0.50;0.30;;;17.80;99.90;;;;;;5056769;28;20468;-82
2022/05/16 05:44:03;;;;;;;0.50;0.40;;;18.10;99.90;;;;;;5057187;28;20818;-83
2022/05/16 05:46:35;;;;;;;0.50;0.40;;;18.20;99.90;;;;;;5057117;28;20455;-83
2022/05/16 05:49:03;;;;;;;0.50;0.40;;;18.30;99.90;;;;;;5056859;28;20424;-83
2022/05/16 05:51:31;;;;;;;0.60;0.60;;;18.40;99.90;;;;;;5057505;28;20476;-83
2022/05/16 05:53:58;;;;;;;0.50;0.30;;;18.50;99.90;;;;;;5058701;28;20464;-83
2022/05/16 05:56:25;;;;;;;0.50;0.30;;;18.70;99.90;;;;;;5076065;28;20468;-83
2022/05/16 05:58:52;;;;;;;0.60;0.50;;;18.80;99.90;;;;;;5076795;28;20444;-83
2022/05/16 06:01:19;;;;;;;0.50;0.40;;;18.90;99.90;;;;;;5076909;28;20471;-83
2022/05/16 06:03:46;;;;;;;0.50;0.40;;;19.10;99.90;;;;;;5076451;28;20452;-82
2022/05/16 06:06:12;;;;;;;0.50;0.40;;;19.20;99.90;;;;;;5077105;28;20454;-83
2022/05/16 06:08:41;;;;;;;0.50;0.30;;;19.40;99.90;;;;;;5076143;28;20459;-83
2022/05/16 06:11:08;;;;;;;0.50;0.40;;;19.60;99.90;;;;;;5077830;28;20642;-82
2022/05/16 06:13:34;;;;;;;0.50;0.30;;;19.70;99.90;;;;;;5078140;28;20424;-78
2022/05/16 06:16:01;;;;;;;0.50;0.30;;;19.70;99.90;;;;;;5076495;28;20522;-83
2022/05/16 06:18:28;;;;;;;0.50;0.30;;;19.80;99.90;;;;;;5076806;28;20441;-82
2022/05/16 06:20:55;;;;;;;0.50;0.30;;;19.90;99.90;;;;;;5077304;28;20456;-82
2022/05/16 06:23:22;;;;;;;0.50;0.30;;;20.10;99.90;;;;;;5076682;28;20442;-82
2022/05/16 06:25:51;;;;;;;0.50;0.30;;;20.20;99.90;;;;;;5077289;28;20448;-82
2022/05/16 06:28:19;;;;;;;0.50;0.30;;;20.40;99.90;;;;;;5075404;28;20527;-82
2022/05/16 06:30:50;;;;;;;0.50;0.30;;;20.40;99.90;;;;;;5080747;28;20490;-82
2022/05/16 06:33:19;;;;;;;0.50;0.30;;;20.30;99.90;;;;;;5082112;28;20518;-82
2022/05/16 06:35:46;;;;;;;0.50;0.30;;;20.20;99.90;;;;;;5077875;28;20445;-82
2022/05/16 06:38:15;;;;;;;0.50;0.30;;;20.30;99.90;;;;;;5088457;28;21070;-82
2022/05/16 06:40:44;;;;;;;0.50;0.30;;;20.30;99.90;;;;;;5083939;28;20436;-81
2022/05/16 06:43:12;;;;;;;0.50;0.30;;;20.30;99.90;;;;;;5067983;28;20429;-79
2022/05/16 06:45:40;;;;;;;0.50;0.30;;;20.60;99.90;;;;;;5060204;28;20448;-81
2022/05/16 06:48:07;;;;;;;0.50;0.30;;;21.00;99.90;;;;;;5061053;28;20424;-82
2022/05/16 06:50:35;;;;;;;0.60;0.50;;;21.30;99.90;;;;;;5060672;28;20781;-81
2022/05/16 06:53:03;;;;;;;0.50;0.30;;;21.80;99.90;;;;;;5060763;28;20452;-82
2022/05/16 06:55:30;;;;;;;0.50;0.30;;;22.30;99.90;;;;;;5060751;28;20440;-82
2022/05/16 06:57:57;;;;;;;0.50;0.30;;;22.60;99.90;;;;;;5060478;28;20441;-83
2022/05/16 07:00:26;;;;;;;0.50;0.30;;;22.80;99.90;;;;;;5060755;28;20437;-83
2022/05/16 07:02:53;;;;;;;0.50;0.30;;;22.90;99.90;;;;;;5060403;28;20487;-83
2022/05/16 07:05:19;;;;;;;0.50;0.30;;;23.20;99.90;;;;;;5059698;28;20456;-83
2022/05/16 07:07:46;;;;;;;0.50;0.30;;;23.60;99.90;;;;;;5061490;28;20455;-83
2022/05/16 07:10:13;;;;;;;0.90;0.90;;;23.60;99.90;;;;;;5060933;28;20452;-83
2022/05/16 07:12:40;;;;;;;0.50;0.30;;;23.60;99.90;;;;;;5061078;28;20489;-83
2022/05/16 07:15:07;;;;;;;0.50;0.30;;;23.30;99.90;;;;;;5059814;28;20444;-83
2022/05/16 07:17:35;;;;;;;0.50;0.30;;;23.20;99.90;;;;;;5058861;28;20441;-83
2022/05/16 07:20:02;;;;;;;0.50;0.30;;;23.10;99.90;;;;;;5067650;28;20487;-83
2022/05/16 07:22:29;;;;;;;0.50;0.30;;;23.10;99.90;;;;;;5079763;28;20483;-83
2022/05/16 07:24:58;;;;;;;0.50;0.40;;;23.10;99.90;;;;;;5081853;28;20436;-83
2022/05/16 07:30:12;;;;;;;0.53;0.37;;;22.90;99.90;;;;;;5077851;28;20443;-82
2022/05/16 07:32:43;;;;;;;0.50;0.30;;;22.70;99.90;;;;;;5080689;28;20476;-83
2022/05/16 07:35:12;;;;;;;0.53;0.43;;;22.60;99.90;;;;;;5080371;28;20419;-82
2022/05/16 07:37:39;;;;;;;0.67;0.67;;;22.30;99.90;;;;;;5079819;28;20443;-82
2022/05/16 07:40:09;;;;;;;3.03;1.27;;;22.10;99.90;;;;;;5080225;28;20441;-82
2022/05/16 07:42:36;;;;;;;0.50;0.30;;;22.00;99.90;;;;;;5060435;28;20480;-83
2022/05/16 07:45:06;;;;;;;0.50;0.30;;;21.90;99.90;;;;;;5067664;28;20457;-81
2022/05/16 07:47:33;;;;;;;1.33;1.23;;;21.90;99.90;;;;;;5074674;28;20437;-82
2022/05/16 07:50:01;;;;;;;0.80;0.80;;;22.00;99.90;;;;;;5075412;28;20445;-81
2022/05/16 07:52:29;;;;;;;0.50;0.30;;;22.10;99.90;;;;;;5075884;28;20480;-81
2022/05/16 07:54:56;;;;;;;1.23;0.83;;;22.00;99.90;;;;;;5076428;28;20429;-82
2022/05/16 07:57:23;;;;;;;0.50;0.30;;;22.10;99.90;;;;;;5069353;28;20468;-79
2022/05/16 07:59:50;;;;;;;0.50;0.30;;;22.00;99.90;;;;;;5072463;28;20450;-82
2022/05/16 08:02:17;;;;;;;0.50;0.30;;;22.30;99.90;;;;;;5075647;28;20460;-81
2022/05/16 08:04:44;;;;;;;2.10;1.17;;;22.40;99.90;;;;;;5075157;28;20434;-82
2022/05/16 08:07:12;;;;;;;0.50;0.30;;;22.40;99.90;;;;;;5075154;28;20448;-81
2022/05/16 08:12:24;;;;;;;0.50;0.30;;;22.30;99.90;;;;;;5075074;28;20850;-82
2022/05/16 08:14:51;;;;;;;0.50;0.30;;;22.50;99.90;;;;;;5071285;28;20438;-82
2022/05/16 08:17:18;;;;;;;0.50;0.30;;;22.40;99.90;;;;;;5060098;28;20937;-82
2022/05/16 08:19:44;;;;;;;0.50;0.30;;;22.30;99.90;;;;;;5059527;28;20444;-80
2022/05/16 08:22:13;;;;;;;0.50;0.40;;;22.10;99.90;;;;;;5061960;28;20464;-83
2022/05/16 08:24:40;;;;;;;0.50;0.40;;;21.90;99.90;;;;;;5061794;28;20464;-82
2022/05/16 08:27:06;;;;;;;1.20;1.13;;;21.40;99.90;;;;;;5061582;28;20453;-81
2022/05/16 08:29:33;;;;;;;0.50;0.30;;;21.10;99.90;;;;;;5061042;28;20441;-82
2022/05/16 08:32:01;;;;;;;0.50;0.30;;;20.90;99.90;;;;;;5059662;28;20483;-83
2022/05/16 08:34:29;;;;;;;0.50;0.40;;;20.70;99.90;;;;;;5059925;28;20491;-83
2022/05/16 08:39:55;;;;;;;0.50;0.30;;;20.40;99.90;;;;;;5059318;28;20475;-83
2022/05/16 08:42:29;;;;;;;0.50;0.30;;;20.30;99.90;;;;;;5058560;28;20491;-83
2022/05/16 08:45:00;;;;;;;0.50;0.30;;;20.20;99.90;;;;;;5059103;28;20437;-83
2022/05/16 08:47:54;;;;;;;0.50;0.40;;;20.20;99.90;;;;;;5058529;28;20503;-80
2022/05/16 08:50:25;;;;;;;0.50;0.30;;;20.10;99.90;;;;;;5060826;28;20448;-82
2022/05/16 08:52:58;;;;;;;0.50;0.30;;;20.10;99.90;;;;;;5059311;28;20508;-82
2022/05/16 08:55:32;;;;;;;0.50;0.30;;;20.20;99.90;;;;;;5059207;28;20433;-82
2022/05/16 08:58:06;;;;;;;0.50;0.30;;;20.20;99.90;;;;;;5059132;28;20433;-82
2022/05/16 09:00:36;;;;;;;0.50;0.30;;;20.30;99.90;;;;;;5059101;28;20437;-81
2022/05/16 09:03:06;;;;;;;0.50;0.30;;;20.30;99.90;;;;;;5058107;28;20464;-82
2022/05/16 09:05:37;;;;;;;0.50;0.30;;;20.40;99.90;;;;;;5057829;28;20796;-83
2022/05/16 09:08:07;;;;;;;0.50;0.30;;;20.50;99.90;;;;;;5057710;28;20417;-82
2022/05/16 09:10:55;;;;;;;0.50;0.30;;;20.50;99.90;;;;;;5057861;28;20436;-81
2022/05/16 09:13:35;;;;;;;0.50;0.30;;;20.60;99.90;;;;;;5057346;28;20465;-82
2022/05/16 09:16:10;;;;;;;0.50;0.30;;;20.70;99.90;;;;;;5058571;28;20445;-83
2022/05/16 09:18:42;;;;;;;0.50;0.30;;;20.80;99.90;;;;;;5057301;28;20441;-81
2022/05/16 09:21:14;;;;;;;0.50;0.30;;;20.90;99.90;;;;;;5058320;28;20964;-82
2022/05/16 09:23:52;;;;;;;4.40;4.13;;;20.90;99.90;;;;;;5059151;28;20449;-83
2022/05/16 09:26:33;;;;;;;0.50;0.30;;;21.10;99.90;;;;;;5058410;28;20445;-82
2022/05/16 09:29:06;;;;;;;0.50;0.40;;;21.30;99.90;;;;;;5057764;28;20445;-83
2022/05/16 09:31:37;;;;;;;0.50;0.30;;;21.50;99.90;;;;;;5057850;28;20969;-80
2022/05/16 09:34:04;;;;;;;0.50;0.30;;;21.80;99.90;;;;;;5058082;28;20421;-83
2022/05/16 09:36:33;;;;;;;0.50;0.30;;;22.10;99.90;;;;;;5058847;28;20857;-83
2022/05/16 09:39:00;;;;;;;0.50;0.30;;;22.60;99.90;;;;;;5058580;28;20441;-83
2022/05/16 09:41:42;;;;;;;2.30;2.20;;;23.50;99.90;;;;;;5058972;28;20559;-82
2022/05/16 09:44:15;;;;;;;0.50;0.30;;;24.80;99.90;;;;;;5056703;28;20445;-83
2022/05/16 09:46:44;;;;;;;0.50;0.30;;;25.90;99.90;;;;;;5058192;28;20428;-83
2022/05/16 09:49:19;;;;;;;0.60;0.47;;;27.20;99.90;;;;;;5057759;28;20444;-83
2022/05/16 09:51:49;;;;;;;0.50;0.30;;;28.50;98.30;;;;;;5058652;28;20476;-84
2022/05/16 09:54:23;;;;;;;0.50;0.37;;;30.10;92.70;;;;;;5058675;28;20432;-83
2022/05/16 09:57:12;;;;;;;0.50;0.30;;;31.40;84.10;;;;;;5058318;28;20434;-83
2022/05/16 09:59:42;;;;;;;0.60;0.60;;;32.00;77.00;;;;;;5057601;28;20845;-83
2022/05/16 10:02:28;;;;;;;0.50;0.30;;;31.50;74.00;;;;;;5075571;28;20510;-81
2022/05/16 10:04:58;;;;;;;2.03;0.60;;;31.20;73.90;;;;;;5061526;28;20433;-84
2022/05/16 10:07:31;;;;;;;0.50;0.30;;;31.40;73.90;;;;;;5089368;28;20428;-84
2022/05/16 10:09:59;;;;;;;0.50;0.30;;;32.10;70.40;;;;;;5097899;28;20450;-84
2022/05/16 10:12:28;;;;;;;0.50;0.30;;;33.20;68.50;;;;;;5098313;28;20517;-85
2022/05/16 10:14:55;;;;;;;0.50;0.30;;;33.80;64.00;;;;;;5097398;28;21005;-83
2022/05/16 10:17:28;;;;;;;0.50;0.30;;;33.40;62.20;;;;;;5097991;28;20435;-82
2022/05/16 10:20:00;;;;;;;0.50;0.30;;;32.30;62.30;;;;;;5097477;28;20427;-84
2022/05/16 10:22:28;;;;;;;0.50;0.30;;;30.60;65.80;;;;;;5097696;28;20459;-85
2022/05/16 10:24:57;;;;;;;0.50;0.30;;;29.70;67.60;;;;;;5097247;28;20471;-84
2022/05/16 10:27:29;;;;;;;0.50;0.30;;;29.10;71.00;;;;;;5096107;28;20470;-84
2022/05/16 10:29:58;;;;;;;0.60;0.60;;;28.80;73.80;;;;;;5096598;28;20427;-83
2022/05/16 10:35:21;;;;;;;0.50;0.30;;;28.40;76.30;;;;;;5096654;28;20778;-82
2022/05/16 10:37:52;;;;;;;0.60;0.50;;;28.40;74.50;;;;;;5096310;28;20927;-83
2022/05/16 10:40:27;;;;;;;0.50;0.30;;;28.20;76.00;;;;;;5097416;28;20423;-83
2022/05/16 10:43:07;;;;;;;3.73;3.47;;;28.50;77.90;;;;;;5096498;28;20458;-84
2022/05/16 10:45:36;;;;;;;0.60;0.50;;;28.60;76.20;;;;;;5096983;28;20482;-84
2022/05/16 10:48:14;;;;;;;0.50;0.30;;;28.40;76.70;;;;;;5096796;28;20469;-83
2022/05/16 10:50:48;;;;;;;0.50;0.30;;;28.40;77.90;;;;;;5098658;28;20441;-83
2022/05/16 10:53:20;;;;;;;0.50;0.30;;;28.40;77.80;;;;;;5099160;28;20459;-83
2022/05/16 10:55:55;;;;;;;3.70;1.63;;;28.40;80.20;;;;;;5098897;28;20450;-84
2022/05/16 10:58:38;;;;;;;0.50;0.30;;;29.20;78.90;;;;;;5098652;28;20447;-85
2022/05/16 11:01:11;;;;;;;0.50;0.30;;;29.80;74.90;;;;;;5099790;28;20466;-84
2022/05/16 11:04:13;;;;;;;0.73;0.73;;;30.20;75.20;;;;;;5098927;28;20438;-81
2022/05/16 11:07:05;;;;;;;0.50;0.30;;;30.00;74.50;;;;;;5097099;28;20533;-83
2022/05/16 11:09:41;;;;;;;0.50;0.30;;;29.70;76.60;;;;;;5096944;28;20427;-84
2022/05/16 11:12:14;;;;;;;0.80;0.80;;;29.80;74.20;;;;;;5097646;28;20478;-83
2022/05/16 11:14:49;;;;;;;0.50;0.30;;;30.00;73.00;;;;;;5098378;28;20428;-82
2022/05/16 11:17:24;;;;;;;0.50;0.30;;;30.20;74.20;;;;;;5082723;28;20801;-82
2022/05/16 11:19:59;;;;;;;0.93;0.93;;;30.30;75.60;;;;;;5081783;28;20439;-83
2022/05/16 11:22:32;;;;;;;3.30;1.67;;;31.50;75.70;;;;;;5080788;28;20963;-83
2022/05/16 11:25:07;;;;;;;0.50;0.30;;;32.10;72.10;;;;;;5079809;28;20416;-84
2022/05/16 11:27:39;;;;;;;0.50;0.30;;;32.60;68.80;;;;;;5080213;28;20423;-84
2022/05/16 11:30:14;;;;;;;0.50;0.40;;;32.30;67.00;;;;;;5080605;28;20421;-83
2022/05/16 11:33:02;;;;;;;0.50;0.30;;;32.40;67.10;;;;;;5080388;28;20479;-83
2022/05/16 11:35:36;;;;;;;0.50;0.30;;;32.70;67.60;;;;;;5080419;28;20503;-83
2022/05/16 11:38:15;;;;;;;0.87;0.87;;;33.30;65.70;;;;;;5080248;28;20437;-84
2022/05/16 11:40:50;;;;;;;0.50;0.40;;;34.20;65.00;;;;;;5079332;28;20859;-83
2022/05/16 11:43:22;;;;;;;0.47;0.30;;;35.10;62.30;;;;;;5080502;28;20439;-84
2022/05/16 11:46:18;;;;;;;0.50;0.30;;;35.70;58.30;;;;;;5080732;28;20427;-85
2022/05/16 11:48:54;;;;;;;0.50;0.30;;;36.40;56.50;;;;;;5079103;28;20957;-79
2022/05/16 11:51:28;;;;;;;0.50;0.40;;;36.80;55.30;;;;;;5079674;28;20467;-84
2022/05/16 11:53:58;;;;;;;0.40;0.30;;;37.60;55.40;;;;;;5080341;28;20472;-83
2022/05/16 12:02:16;;;;;;;0.40;0.30;;;38.80;51.00;;;;;;5079701;28;20432;-85
2022/05/16 12:04:46;;;;;;;0.40;0.40;;;38.80;51.80;;;;;;5079705;28;20435;-83
2022/05/16 12:07:18;;;;;;;0.40;0.30;;;37.80;49.90;;;;;;5079648;28;20558;-81
2022/05/16 12:09:58;;;;;;;1.13;1.00;;;36.70;51.60;;;;;;5079588;28;20424;-84
2022/05/16 12:12:35;;;;;;;0.40;0.30;;;37.10;51.00;;;;;;5080434;28;20479;-83
2022/05/16 12:15:27;;;;;;;0.47;0.30;;;36.50;51.20;;;;;;5078873;28;20436;-83
2022/05/16 12:17:58;;;;;;;0.50;0.30;;;35.50;52.00;;;;;;5078205;28;20424;-82
2022/05/16 12:21:00;;;;;;;0.50;0.30;;;34.10;53.30;;;;;;5079017;28;20444;-84
2022/05/16 12:23:56;;;;;;;0.50;0.30;;;33.00;54.20;;;;;;5078850;28;20435;-83
2022/05/16 12:26:34;;;;;;;0.67;0.67;;;31.40;57.00;;;;;;5078810;28;20451;-82
2022/05/16 12:29:21;;;;;;;0.50;0.30;;;30.70;58.70;;;;;;5077760;28;20450;-83
2022/05/16 12:31:53;;;;;;;1.37;1.27;;;29.30;64.70;;;;;;5079140;28;20535;-82
2022/05/16 12:34:44;;;;;;;1.53;1.43;;;27.50;87.50;;;;;;5078840;28;20901;-83
2022/05/16 12:37:14;;;;;;;0.50;0.30;;;25.40;99.90;;;;;;5078902;28;20547;-82
2022/05/16 12:39:51;;;;;;;2.10;0.90;;;24.20;99.90;;;;;;5078834;28;20448;-83
2022/05/16 12:42:34;;;;;;;1.63;1.23;;;23.50;99.90;;;;;;5077743;28;20475;-83
2022/05/16 12:45:03;;;;;;;0.70;0.67;;;22.70;99.90;;;;;;5078126;28;20445;-83
2022/05/16 12:48:02;;;;;;;0.50;0.30;;;22.30;99.90;;;;;;5078105;28;20441;-84
2022/05/16 12:50:52;;;;;;;0.60;0.50;;;22.10;99.90;;;;;;5077404;28;20452;-84
2022/05/16 12:53:50;;;;;;;0.50;0.30;;;21.70;99.90;;;;;;5078024;28;20464;-85
2022/05/16 12:56:23;;;;;;;0.50;0.30;;;21.50;99.90;;;;;;5078484;28;20440;-84
2022/05/16 12:59:00;;;;;;;0.50;0.30;;;21.80;99.90;;;;;;5078025;28;20516;-84
2022/05/16 13:01:35;;;;;;;0.60;0.50;;;22.00;99.90;;;;;;5078407;28;20676;-84
2022/05/16 13:04:17;;;;;;;0.50;0.30;;;21.70;99.90;;;;;;5078329;28;20419;-85
2022/05/16 13:06:56;;;;;;;0.50;0.30;;;21.60;99.90;;;;;;5079450;28;20420;-84
2022/05/16 13:09:43;;;;;;;0.50;0.30;;;21.60;99.90;;;;;;5078797;28;20431;-85
2022/05/16 13:12:22;;;;;;;0.50;0.30;;;22.10;99.90;;;;;;5077858;28;20460;-84
2022/05/16 13:14:58;;;;;;;0.50;0.30;;;22.40;99.90;;;;;;5078536;28;20869;-84
2022/05/16 13:17:33;;;;;;;0.50;0.30;;;22.70;99.90;;;;;;5077116;28;20439;-83
2022/05/16 13:20:03;;;;;;;0.50;0.30;;;22.70;99.90;;;;;;5077868;28;20431;-85
2022/05/16 13:22:32;;;;;;;0.50;0.30;;;22.60;99.90;;;;;;5077838;28;20463;-84
2022/05/16 13:24:59;;;;;;;0.50;0.30;;;22.30;99.90;;;;;;5077706;28;20448;-83
2022/05/16 13:30:15;;;;;;;0.53;0.40;;;21.90;99.90;;;;;;5077821;28;20825;-84
2022/05/16 13:32:42;;;;;;;0.50;0.30;;;21.70;99.90;;;;;;5076623;28;20460;-84
2022/05/16 13:35:11;;;;;;;0.57;0.40;;;21.50;99.90;;;;;;5077541;28;20806;-86
2022/05/16 13:37:45;;;;;;;0.70;0.70;;;21.20;99.90;;;;;;5076315;28;20452;-84
2022/05/16 13:40:22;;;;;;;0.63;0.63;;;20.70;99.90;;;;;;5075744;28;20898;-85
2022/05/16 13:42:49;;;;;;;0.53;0.40;;;20.30;99.90;;;;;;5076316;28;20471;-85
2022/05/16 13:45:21;;;;;;;0.50;0.30;;;19.90;99.90;;;;;;5076540;28;20440;-82